sensor_id;sensor_type;location;lat;lon;timestamp;P1;durP1;ratioP1;P2;durP2;ratioP2
16963;SDS011;8598;50.508;10.436;2023-05-10T00:00:17;3.67;;;3.37;;
16963;SDS011;8598;50.508;10.436;2023-05-10T00:02:45;3.63;;;2.93;;
16963;SDS011;8598;50.508;10.436;2023-05-10T00:05:12;4.40;;;3.50;;
16963;SDS011;8598;50.508;10.436;2023-05-10T00:07:38;3.97;;;2.77;;
16963;SDS011;8598;50.508;10.436;2023-05-10T00:10:05;3.23;;;2.87;;
16963;SDS011;8598;50.508;10.436;2023-05-10T00:12:32;3.73;;;2.70;;
16963;SDS011;8598;50.508;10.436;2023-05-10T00:15:00;3.53;;;2.63;;
16963;SDS011;8598;50.508;10.436;2023-05-10T00:17:27;3.33;;;3.03;;
16963;SDS011;8598;50.508;10.436;2023-05-10T00:19:54;4.33;;;3.13;;
16963;SDS011;8598;50.508;10.436;2023-05-10T00:22:21;4.13;;;3.03;;
16963;SDS011;8598;50.508;10.436;2023-05-10T00:24:47;4.60;;;2.80;;
16963;SDS011;8598;50.508;10.436;2023-05-10T00:27:14;5.60;;;2.93;;
16963;SDS011;8598;50.508;10.436;2023-05-10T00:29:41;6.10;;;3.23;;
16963;SDS011;8598;50.508;10.436;2023-05-10T00:32:09;8.63;;;3.47;;
16963;SDS011;8598;50.508;10.436;2023-05-10T00:34:35;5.77;;;3.10;;
16963;SDS011;8598;50.508;10.436;2023-05-10T00:37:02;4.93;;;3.93;;
16963;SDS011;8598;50.508;10.436;2023-05-10T00:39:28;4.87;;;4.37;;
16963;SDS011;8598;50.508;10.436;2023-05-10T00:41:55;5.30;;;3.70;;
16963;SDS011;8598;50.508;10.436;2023-05-10T00:44:21;4.07;;;3.43;;
16963;SDS011;8598;50.508;10.436;2023-05-10T00:46:48;5.10;;;4.03;;
16963;SDS011;8598;50.508;10.436;2023-05-10T00:49:17;6.10;;;4.57;;
16963;SDS011;8598;50.508;10.436;2023-05-10T00:51:43;4.63;;;3.83;;
16963;SDS011;8598;50.508;10.436;2023-05-10T00:54:11;5.83;;;5.10;;
16963;SDS011;8598;50.508;10.436;2023-05-10T00:56:40;6.33;;;4.27;;
16963;SDS011;8598;50.508;10.436;2023-05-10T00:59:07;5.53;;;3.97;;
16963;SDS011;8598;50.508;10.436;2023-05-10T01:01:34;5.60;;;4.07;;
16963;SDS011;8598;50.508;10.436;2023-05-10T01:04:01;4.10;;;3.77;;
16963;SDS011;8598;50.508;10.436;2023-05-10T01:06:29;6.73;;;4.07;;
16963;SDS011;8598;50.508;10.436;2023-05-10T01:08:57;6.87;;;4.27;;
16963;SDS011;8598;50.508;10.436;2023-05-10T01:11:23;13.03;;;5.00;;
16963;SDS011;8598;50.508;10.436;2023-05-10T01:13:52;7.77;;;4.70;;
16963;SDS011;8598;50.508;10.436;2023-05-10T01:16:22;6.27;;;4.50;;
16963;SDS011;8598;50.508;10.436;2023-05-10T01:18:49;6.23;;;4.80;;
16963;SDS011;8598;50.508;10.436;2023-05-10T01:21:19;7.63;;;4.43;;
16963;SDS011;8598;50.508;10.436;2023-05-10T01:24:07;5.90;;;4.50;;
16963;SDS011;8598;50.508;10.436;2023-05-10T01:29:54;6.73;;;4.60;;
16963;SDS011;8598;50.508;10.436;2023-05-10T01:32:40;6.80;;;4.73;;
16963;SDS011;8598;50.508;10.436;2023-05-10T01:35:16;9.13;;;6.70;;
16963;SDS011;8598;50.508;10.436;2023-05-10T01:37:50;5.93;;;4.53;;
16963;SDS011;8598;50.508;10.436;2023-05-10T01:40:23;8.40;;;5.00;;
16963;SDS011;8598;50.508;10.436;2023-05-10T01:43:00;6.10;;;4.60;;
16963;SDS011;8598;50.508;10.436;2023-05-10T01:45:30;9.17;;;5.00;;
16963;SDS011;8598;50.508;10.436;2023-05-10T01:48:05;6.07;;;5.00;;
16963;SDS011;8598;50.508;10.436;2023-05-10T01:50:34;6.23;;;4.97;;
16963;SDS011;8598;50.508;10.436;2023-05-10T01:53:02;8.17;;;5.33;;
16963;SDS011;8598;50.508;10.436;2023-05-10T01:55:32;7.87;;;5.60;;
16963;SDS011;8598;50.508;10.436;2023-05-10T01:58:03;5.80;;;5.13;;
16963;SDS011;8598;50.508;10.436;2023-05-10T02:00:33;8.80;;;5.57;;
16963;SDS011;8598;50.508;10.436;2023-05-10T02:03:01;7.23;;;5.43;;
16963;SDS011;8598;50.508;10.436;2023-05-10T02:05:33;6.43;;;5.07;;
16963;SDS011;8598;50.508;10.436;2023-05-10T02:08:01;7.87;;;5.70;;
16963;SDS011;8598;50.508;10.436;2023-05-10T02:10:31;8.03;;;5.67;;
16963;SDS011;8598;50.508;10.436;2023-05-10T02:12:59;6.13;;;5.27;;
16963;SDS011;8598;50.508;10.436;2023-05-10T02:15:27;7.83;;;5.70;;
16963;SDS011;8598;50.508;10.436;2023-05-10T02:17:56;8.07;;;6.27;;
16963;SDS011;8598;50.508;10.436;2023-05-10T02:20:25;8.70;;;6.03;;
16963;SDS011;8598;50.508;10.436;2023-05-10T02:22:54;8.13;;;6.03;;
16963;SDS011;8598;50.508;10.436;2023-05-10T02:25:22;9.73;;;5.80;;
16963;SDS011;8598;50.508;10.436;2023-05-10T02:27:50;8.67;;;6.53;;
16963;SDS011;8598;50.508;10.436;2023-05-10T02:30:19;7.03;;;5.93;;
16963;SDS011;8598;50.508;10.436;2023-05-10T02:32:47;9.40;;;6.00;;
16963;SDS011;8598;50.508;10.436;2023-05-10T02:35:15;14.20;;;6.20;;
16963;SDS011;8598;50.508;10.436;2023-05-10T02:37:44;6.90;;;5.67;;
16963;SDS011;8598;50.508;10.436;2023-05-10T02:40:12;9.40;;;5.73;;
16963;SDS011;8598;50.508;10.436;2023-05-10T02:42:41;8.77;;;6.00;;
16963;SDS011;8598;50.508;10.436;2023-05-10T02:45:11;8.57;;;6.40;;
16963;SDS011;8598;50.508;10.436;2023-05-10T02:47:39;8.97;;;5.93;;
16963;SDS011;8598;50.508;10.436;2023-05-10T02:50:06;6.03;;;5.30;;
16963;SDS011;8598;50.508;10.436;2023-05-10T02:52:36;8.00;;;5.87;;
16963;SDS011;8598;50.508;10.436;2023-05-10T02:55:08;9.03;;;6.23;;
16963;SDS011;8598;50.508;10.436;2023-05-10T02:57:38;8.23;;;6.07;;
16963;SDS011;8598;50.508;10.436;2023-05-10T03:00:09;8.00;;;6.23;;
16963;SDS011;8598;50.508;10.436;2023-05-10T03:02:36;7.83;;;6.10;;
16963;SDS011;8598;50.508;10.436;2023-05-10T03:05:03;7.43;;;5.83;;
16963;SDS011;8598;50.508;10.436;2023-05-10T03:07:30;7.40;;;5.57;;
16963;SDS011;8598;50.508;10.436;2023-05-10T03:09:57;8.27;;;6.10;;
16963;SDS011;8598;50.508;10.436;2023-05-10T03:12:27;7.07;;;5.87;;
16963;SDS011;8598;50.508;10.436;2023-05-10T03:15:06;8.73;;;6.30;;
16963;SDS011;8598;50.508;10.436;2023-05-10T03:17:41;10.30;;;6.37;;
16963;SDS011;8598;50.508;10.436;2023-05-10T03:20:16;10.20;;;6.63;;
16963;SDS011;8598;50.508;10.436;2023-05-10T03:22:49;8.23;;;6.33;;
16963;SDS011;8598;50.508;10.436;2023-05-10T03:25:19;12.13;;;6.97;;
16963;SDS011;8598;50.508;10.436;2023-05-10T03:27:49;7.43;;;6.17;;
16963;SDS011;8598;50.508;10.436;2023-05-10T03:30:17;7.67;;;6.23;;
16963;SDS011;8598;50.508;10.436;2023-05-10T03:32:45;7.37;;;5.63;;
16963;SDS011;8598;50.508;10.436;2023-05-10T03:35:12;8.30;;;5.50;;
16963;SDS011;8598;50.508;10.436;2023-05-10T03:37:39;7.23;;;5.10;;
16963;SDS011;8598;50.508;10.436;2023-05-10T03:40:06;7.10;;;5.87;;
16963;SDS011;8598;50.508;10.436;2023-05-10T03:42:34;7.47;;;6.57;;
16963;SDS011;8598;50.508;10.436;2023-05-10T03:45:02;8.83;;;5.60;;
16963;SDS011;8598;50.508;10.436;2023-05-10T03:47:29;8.80;;;6.00;;
16963;SDS011;8598;50.508;10.436;2023-05-10T03:49:55;6.73;;;5.30;;
16963;SDS011;8598;50.508;10.436;2023-05-10T03:52:22;7.10;;;5.37;;
16963;SDS011;8598;50.508;10.436;2023-05-10T03:54:48;7.20;;;5.70;;
16963;SDS011;8598;50.508;10.436;2023-05-10T03:57:15;6.73;;;5.03;;
16963;SDS011;8598;50.508;10.436;2023-05-10T03:59:41;6.67;;;5.80;;
16963;SDS011;8598;50.508;10.436;2023-05-10T04:02:09;6.73;;;5.50;;
16963;SDS011;8598;50.508;10.436;2023-05-10T04:04:36;5.97;;;5.00;;
16963;SDS011;8598;50.508;10.436;2023-05-10T04:07:03;7.10;;;5.37;;
16963;SDS011;8598;50.508;10.436;2023-05-10T04:09:29;6.80;;;5.07;;
16963;SDS011;8598;50.508;10.436;2023-05-10T04:11:56;9.73;;;7.00;;
16963;SDS011;8598;50.508;10.436;2023-05-10T04:14:24;7.33;;;5.63;;
16963;SDS011;8598;50.508;10.436;2023-05-10T04:16:50;7.07;;;5.37;;
16963;SDS011;8598;50.508;10.436;2023-05-10T04:19:18;6.00;;;5.00;;
16963;SDS011;8598;50.508;10.436;2023-05-10T04:21:45;11.40;;;8.33;;
16963;SDS011;8598;50.508;10.436;2023-05-10T04:24:11;10.13;;;7.30;;
16963;SDS011;8598;50.508;10.436;2023-05-10T04:26:38;8.00;;;5.80;;
16963;SDS011;8598;50.508;10.436;2023-05-10T04:29:05;8.77;;;7.87;;
16963;SDS011;8598;50.508;10.436;2023-05-10T04:31:31;10.90;;;6.97;;
16963;SDS011;8598;50.508;10.436;2023-05-10T04:33:59;7.57;;;6.20;;
16963;SDS011;8598;50.508;10.436;2023-05-10T04:36:27;6.63;;;5.70;;
16963;SDS011;8598;50.508;10.436;2023-05-10T04:38:54;6.17;;;4.87;;
16963;SDS011;8598;50.508;10.436;2023-05-10T04:41:20;6.87;;;4.87;;
16963;SDS011;8598;50.508;10.436;2023-05-10T04:43:47;12.07;;;6.43;;
16963;SDS011;8598;50.508;10.436;2023-05-10T04:46:15;8.37;;;5.50;;
16963;SDS011;8598;50.508;10.436;2023-05-10T04:48:41;6.70;;;4.90;;
16963;SDS011;8598;50.508;10.436;2023-05-10T04:51:08;4.53;;;3.80;;
16963;SDS011;8598;50.508;10.436;2023-05-10T04:53:36;3.90;;;3.30;;
16963;SDS011;8598;50.508;10.436;2023-05-10T04:56:02;4.60;;;2.63;;
16963;SDS011;8598;50.508;10.436;2023-05-10T04:58:29;4.00;;;2.13;;
16963;SDS011;8598;50.508;10.436;2023-05-10T05:00:56;2.87;;;2.10;;
16963;SDS011;8598;50.508;10.436;2023-05-10T05:03:23;2.07;;;1.87;;
16963;SDS011;8598;50.508;10.436;2023-05-10T05:05:50;3.47;;;2.17;;
16963;SDS011;8598;50.508;10.436;2023-05-10T05:08:16;2.10;;;1.90;;
16963;SDS011;8598;50.508;10.436;2023-05-10T05:10:44;2.27;;;2.07;;
16963;SDS011;8598;50.508;10.436;2023-05-10T05:13:12;3.47;;;1.97;;
16963;SDS011;8598;50.508;10.436;2023-05-10T05:15:38;2.50;;;1.73;;
16963;SDS011;8598;50.508;10.436;2023-05-10T05:18:05;2.13;;;1.93;;
16963;SDS011;8598;50.508;10.436;2023-05-10T05:20:32;2.10;;;2.00;;
16963;SDS011;8598;50.508;10.436;2023-05-10T05:22:59;1.97;;;1.87;;
16963;SDS011;8598;50.508;10.436;2023-05-10T05:25:25;1.40;;;1.30;;
16963;SDS011;8598;50.508;10.436;2023-05-10T05:27:53;1.80;;;1.43;;
16963;SDS011;8598;50.508;10.436;2023-05-10T05:30:20;1.43;;;1.20;;
16963;SDS011;8598;50.508;10.436;2023-05-10T05:32:46;1.13;;;1.10;;
16963;SDS011;8598;50.508;10.436;2023-05-10T05:35:13;1.00;;;1.00;;
16963;SDS011;8598;50.508;10.436;2023-05-10T05:37:40;0.93;;;0.93;;
16963;SDS011;8598;50.508;10.436;2023-05-10T05:40:07;1.80;;;1.50;;
16963;SDS011;8598;50.508;10.436;2023-05-10T05:42:34;1.87;;;1.03;;
16963;SDS011;8598;50.508;10.436;2023-05-10T05:45:03;1.33;;;1.23;;
16963;SDS011;8598;50.508;10.436;2023-05-10T05:47:30;1.10;;;1.00;;
16963;SDS011;8598;50.508;10.436;2023-05-10T05:49:56;1.20;;;1.10;;
16963;SDS011;8598;50.508;10.436;2023-05-10T05:52:23;1.30;;;1.20;;
16963;SDS011;8598;50.508;10.436;2023-05-10T05:54:50;1.50;;;0.90;;
16963;SDS011;8598;50.508;10.436;2023-05-10T05:57:16;2.40;;;0.90;;
16963;SDS011;8598;50.508;10.436;2023-05-10T05:59:43;1.47;;;1.37;;
16963;SDS011;8598;50.508;10.436;2023-05-10T06:02:12;1.73;;;1.63;;
16963;SDS011;8598;50.508;10.436;2023-05-10T06:04:38;0.80;;;0.80;;
16963;SDS011;8598;50.508;10.436;2023-05-10T06:07:05;1.33;;;0.70;;
16963;SDS011;8598;50.508;10.436;2023-05-10T06:09:31;0.63;;;0.63;;
16963;SDS011;8598;50.508;10.436;2023-05-10T06:11:58;1.40;;;0.80;;
16963;SDS011;8598;50.508;10.436;2023-05-10T06:14:25;1.87;;;1.70;;
16963;SDS011;8598;50.508;10.436;2023-05-10T06:16:51;3.40;;;2.50;;
16963;SDS011;8598;50.508;10.436;2023-05-10T06:19:19;2.57;;;2.37;;
16963;SDS011;8598;50.508;10.436;2023-05-10T06:21:46;1.60;;;1.50;;
16963;SDS011;8598;50.508;10.436;2023-05-10T06:24:12;1.27;;;0.80;;
16963;SDS011;8598;50.508;10.436;2023-05-10T06:26:39;0.73;;;0.73;;
16963;SDS011;8598;50.508;10.436;2023-05-10T06:29:06;0.70;;;0.70;;
16963;SDS011;8598;50.508;10.436;2023-05-10T06:31:32;3.83;;;0.87;;
16963;SDS011;8598;50.508;10.436;2023-05-10T06:33:59;0.93;;;0.63;;
16963;SDS011;8598;50.508;10.436;2023-05-10T06:36:27;0.73;;;0.73;;
16963;SDS011;8598;50.508;10.436;2023-05-10T06:38:53;0.60;;;0.60;;
16963;SDS011;8598;50.508;10.436;2023-05-10T06:41:21;1.63;;;0.93;;
16963;SDS011;8598;50.508;10.436;2023-05-10T06:43:48;1.00;;;1.00;;
16963;SDS011;8598;50.508;10.436;2023-05-10T06:46:15;0.93;;;0.93;;
16963;SDS011;8598;50.508;10.436;2023-05-10T06:48:42;0.90;;;0.90;;
16963;SDS011;8598;50.508;10.436;2023-05-10T06:51:08;0.80;;;0.80;;
16963;SDS011;8598;50.508;10.436;2023-05-10T06:53:36;0.97;;;0.97;;
16963;SDS011;8598;50.508;10.436;2023-05-10T06:56:03;1.80;;;1.00;;
16963;SDS011;8598;50.508;10.436;2023-05-10T06:58:30;1.70;;;1.10;;
16963;SDS011;8598;50.508;10.436;2023-05-10T07:01:01;0.77;;;0.77;;
16963;SDS011;8598;50.508;10.436;2023-05-10T07:03:28;1.37;;;1.13;;
16963;SDS011;8598;50.508;10.436;2023-05-10T07:05:59;2.47;;;1.13;;
16963;SDS011;8598;50.508;10.436;2023-05-10T07:08:28;1.70;;;1.60;;
16963;SDS011;8598;50.508;10.436;2023-05-10T07:11:00;1.37;;;1.27;;
16963;SDS011;8598;50.508;10.436;2023-05-10T07:13:28;1.20;;;1.17;;
16963;SDS011;8598;50.508;10.436;2023-05-10T07:15:55;1.50;;;1.40;;
16963;SDS011;8598;50.508;10.436;2023-05-10T07:18:21;1.20;;;1.20;;
16963;SDS011;8598;50.508;10.436;2023-05-10T07:20:48;0.83;;;0.83;;
16963;SDS011;8598;50.508;10.436;2023-05-10T07:23:15;0.90;;;0.90;;
16963;SDS011;8598;50.508;10.436;2023-05-10T07:25:44;1.63;;;1.13;;
16963;SDS011;8598;50.508;10.436;2023-05-10T07:28:12;1.30;;;1.30;;
16963;SDS011;8598;50.508;10.436;2023-05-10T07:30:39;0.97;;;0.97;;
16963;SDS011;8598;50.508;10.436;2023-05-10T07:33:06;1.00;;;1.00;;
16963;SDS011;8598;50.508;10.436;2023-05-10T07:35:33;1.80;;;1.33;;
16963;SDS011;8598;50.508;10.436;2023-05-10T07:38:00;1.30;;;1.20;;
16963;SDS011;8598;50.508;10.436;2023-05-10T07:40:27;1.30;;;1.20;;
16963;SDS011;8598;50.508;10.436;2023-05-10T07:42:54;13.73;;;1.70;;
16963;SDS011;8598;50.508;10.436;2023-05-10T07:45:22;1.37;;;1.37;;
16963;SDS011;8598;50.508;10.436;2023-05-10T07:47:49;1.30;;;1.30;;
16963;SDS011;8598;50.508;10.436;2023-05-10T07:50:16;1.57;;;1.33;;
16963;SDS011;8598;50.508;10.436;2023-05-10T07:52:43;1.60;;;1.33;;
16963;SDS011;8598;50.508;10.436;2023-05-10T07:55:09;1.37;;;1.37;;
16963;SDS011;8598;50.508;10.436;2023-05-10T07:57:36;1.50;;;1.40;;
16963;SDS011;8598;50.508;10.436;2023-05-10T08:00:03;1.50;;;1.40;;
16963;SDS011;8598;50.508;10.436;2023-05-10T08:02:32;1.30;;;1.30;;
16963;SDS011;8598;50.508;10.436;2023-05-10T08:04:59;1.00;;;1.00;;
16963;SDS011;8598;50.508;10.436;2023-05-10T08:07:26;1.40;;;1.30;;
16963;SDS011;8598;50.508;10.436;2023-05-10T08:09:53;1.70;;;1.60;;
16963;SDS011;8598;50.508;10.436;2023-05-10T08:12:19;1.27;;;1.23;;
16963;SDS011;8598;50.508;10.436;2023-05-10T08:14:46;1.30;;;1.30;;
16963;SDS011;8598;50.508;10.436;2023-05-10T08:17:13;1.17;;;1.17;;
16963;SDS011;8598;50.508;10.436;2023-05-10T08:19:41;1.73;;;1.63;;
16963;SDS011;8598;50.508;10.436;2023-05-10T08:22:07;1.43;;;1.33;;
16963;SDS011;8598;50.508;10.436;2023-05-10T08:24:34;0.90;;;0.90;;
16963;SDS011;8598;50.508;10.436;2023-05-10T08:27:03;1.67;;;1.57;;
16963;SDS011;8598;50.508;10.436;2023-05-10T08:29:30;3.40;;;1.13;;
16963;SDS011;8598;50.508;10.436;2023-05-10T08:31:57;1.97;;;0.90;;
16963;SDS011;8598;50.508;10.436;2023-05-10T08:34:23;1.10;;;1.10;;
16963;SDS011;8598;50.508;10.436;2023-05-10T08:36:51;1.40;;;1.27;;
16963;SDS011;8598;50.508;10.436;2023-05-10T08:39:18;1.63;;;1.20;;
16963;SDS011;8598;50.508;10.436;2023-05-10T08:41:45;1.30;;;1.23;;
16963;SDS011;8598;50.508;10.436;2023-05-10T08:44:14;3.10;;;0.90;;
16963;SDS011;8598;50.508;10.436;2023-05-10T08:46:43;0.90;;;0.83;;
16963;SDS011;8598;50.508;10.436;2023-05-10T08:49:12;1.40;;;1.30;;
16963;SDS011;8598;50.508;10.436;2023-05-10T08:51:43;1.37;;;1.27;;
16963;SDS011;8598;50.508;10.436;2023-05-10T08:54:19;1.60;;;1.50;;
16963;SDS011;8598;50.508;10.436;2023-05-10T08:56:47;1.80;;;1.70;;
16963;SDS011;8598;50.508;10.436;2023-05-10T08:59:13;2.80;;;2.60;;
16963;SDS011;8598;50.508;10.436;2023-05-10T09:01:40;2.30;;;1.60;;
16963;SDS011;8598;50.508;10.436;2023-05-10T09:04:10;1.13;;;1.10;;
16963;SDS011;8598;50.508;10.436;2023-05-10T09:06:37;2.20;;;1.20;;
16963;SDS011;8598;50.508;10.436;2023-05-10T09:09:04;1.47;;;1.37;;
16963;SDS011;8598;50.508;10.436;2023-05-10T09:11:32;1.37;;;1.27;;
16963;SDS011;8598;50.508;10.436;2023-05-10T09:14:00;2.03;;;1.80;;
16963;SDS011;8598;50.508;10.436;2023-05-10T09:16:27;2.70;;;1.70;;
16963;SDS011;8598;50.508;10.436;2023-05-10T09:18:54;3.07;;;1.63;;
16963;SDS011;8598;50.508;10.436;2023-05-10T09:21:20;2.60;;;1.33;;
16963;SDS011;8598;50.508;10.436;2023-05-10T09:23:47;3.97;;;1.40;;
16963;SDS011;8598;50.508;10.436;2023-05-10T09:26:14;2.30;;;1.40;;
16963;SDS011;8598;50.508;10.436;2023-05-10T09:28:53;4.73;;;1.23;;
16963;SDS011;8598;50.508;10.436;2023-05-10T09:31:21;1.37;;;1.10;;
16963;SDS011;8598;50.508;10.436;2023-05-10T09:33:48;2.27;;;1.20;;
16963;SDS011;8598;50.508;10.436;2023-05-10T09:36:15;2.30;;;1.30;;
16963;SDS011;8598;50.508;10.436;2023-05-10T09:38:45;1.13;;;1.10;;
16963;SDS011;8598;50.508;10.436;2023-05-10T09:41:17;1.43;;;1.33;;
16963;SDS011;8598;50.508;10.436;2023-05-10T09:43:45;1.17;;;1.17;;
16963;SDS011;8598;50.508;10.436;2023-05-10T09:46:13;1.00;;;1.00;;
16963;SDS011;8598;50.508;10.436;2023-05-10T09:48:41;1.17;;;1.13;;
16963;SDS011;8598;50.508;10.436;2023-05-10T09:51:09;3.27;;;1.30;;
16963;SDS011;8598;50.508;10.436;2023-05-10T09:53:36;1.63;;;1.10;;
16963;SDS011;8598;50.508;10.436;2023-05-10T09:56:03;1.10;;;1.00;;
16963;SDS011;8598;50.508;10.436;2023-05-10T09:58:30;3.20;;;0.90;;
16963;SDS011;8598;50.508;10.436;2023-05-10T10:00:56;1.70;;;1.10;;
16963;SDS011;8598;50.508;10.436;2023-05-10T10:03:25;1.50;;;1.40;;
16963;SDS011;8598;50.508;10.436;2023-05-10T10:05:52;1.90;;;1.80;;
16963;SDS011;8598;50.508;10.436;2023-05-10T10:08:20;1.53;;;1.43;;
16963;SDS011;8598;50.508;10.436;2023-05-10T10:10:47;2.10;;;1.33;;
16963;SDS011;8598;50.508;10.436;2023-05-10T10:13:15;1.30;;;1.20;;
16963;SDS011;8598;50.508;10.436;2023-05-10T10:15:42;1.73;;;1.63;;
16963;SDS011;8598;50.508;10.436;2023-05-10T10:18:11;2.63;;;1.83;;
16963;SDS011;8598;50.508;10.436;2023-05-10T10:20:41;1.80;;;1.70;;
16963;SDS011;8598;50.508;10.436;2023-05-10T10:23:08;2.33;;;2.13;;
16963;SDS011;8598;50.508;10.436;2023-05-10T10:25:35;3.13;;;1.83;;
16963;SDS011;8598;50.508;10.436;2023-05-10T10:28:07;2.13;;;1.90;;
16963;SDS011;8598;50.508;10.436;2023-05-10T10:30:41;1.63;;;1.53;;
16963;SDS011;8598;50.508;10.436;2023-05-10T10:33:18;2.03;;;1.87;;
16963;SDS011;8598;50.508;10.436;2023-05-10T10:35:58;3.23;;;1.77;;
16963;SDS011;8598;50.508;10.436;2023-05-10T10:38:35;1.50;;;1.40;;
16963;SDS011;8598;50.508;10.436;2023-05-10T10:41:10;1.43;;;1.40;;
16963;SDS011;8598;50.508;10.436;2023-05-10T10:46:59;1.27;;;1.27;;
16963;SDS011;8598;50.508;10.436;2023-05-10T10:49:33;1.47;;;1.37;;
16963;SDS011;8598;50.508;10.436;2023-05-10T10:52:15;1.30;;;1.30;;
16963;SDS011;8598;50.508;10.436;2023-05-10T10:54:49;1.67;;;1.57;;
16963;SDS011;8598;50.508;10.436;2023-05-10T10:57:18;1.67;;;1.57;;
16963;SDS011;8598;50.508;10.436;2023-05-10T10:59:47;2.37;;;2.13;;
16963;SDS011;8598;50.508;10.436;2023-05-10T11:05:27;2.60;;;2.40;;
16963;SDS011;8598;50.508;10.436;2023-05-10T11:08:11;9.23;;;6.30;;
16963;SDS011;8598;50.508;10.436;2023-05-10T11:10:48;15.87;;;11.10;;
16963;SDS011;8598;50.508;10.436;2023-05-10T11:13:34;6.57;;;5.33;;
16963;SDS011;8598;50.508;10.436;2023-05-10T11:16:11;3.60;;;3.30;;
16963;SDS011;8598;50.508;10.436;2023-05-10T11:18:39;2.67;;;2.47;;
16963;SDS011;8598;50.508;10.436;2023-05-10T11:21:08;3.13;;;2.60;;
16963;SDS011;8598;50.508;10.436;2023-05-10T11:23:48;2.17;;;2.00;;
16963;SDS011;8598;50.508;10.436;2023-05-10T11:26:16;1.83;;;1.73;;
16963;SDS011;8598;50.508;10.436;2023-05-10T11:28:43;2.13;;;1.93;;
16963;SDS011;8598;50.508;10.436;2023-05-10T11:31:10;3.13;;;1.90;;
16963;SDS011;8598;50.508;10.436;2023-05-10T11:33:42;2.27;;;2.07;;
16963;SDS011;8598;50.508;10.436;2023-05-10T11:36:10;3.20;;;2.90;;
16963;SDS011;8598;50.508;10.436;2023-05-10T11:38:38;2.13;;;2.00;;
16963;SDS011;8598;50.508;10.436;2023-05-10T11:41:06;2.80;;;2.60;;
16963;SDS011;8598;50.508;10.436;2023-05-10T11:43:34;2.23;;;2.10;;
16963;SDS011;8598;50.508;10.436;2023-05-10T11:46:03;2.70;;;1.97;;
16963;SDS011;8598;50.508;10.436;2023-05-10T11:48:30;1.70;;;1.60;;
16963;SDS011;8598;50.508;10.436;2023-05-10T11:50:57;2.57;;;2.30;;
16963;SDS011;8598;50.508;10.436;2023-05-10T11:53:25;3.27;;;2.10;;
16963;SDS011;8598;50.508;10.436;2023-05-10T11:55:52;2.37;;;2.27;;
16963;SDS011;8598;50.508;10.436;2023-05-10T11:58:20;2.40;;;2.20;;
16963;SDS011;8598;50.508;10.436;2023-05-10T12:00:48;2.00;;;1.90;;
16963;SDS011;8598;50.508;10.436;2023-05-10T12:03:16;2.57;;;1.80;;
16963;SDS011;8598;50.508;10.436;2023-05-10T12:05:43;1.93;;;1.83;;
16963;SDS011;8598;50.508;10.436;2023-05-10T12:08:13;2.20;;;2.10;;
16963;SDS011;8598;50.508;10.436;2023-05-10T12:10:40;2.30;;;2.10;;
16963;SDS011;8598;50.508;10.436;2023-05-10T12:13:10;3.33;;;1.67;;
16963;SDS011;8598;50.508;10.436;2023-05-10T12:15:39;1.80;;;1.70;;
16963;SDS011;8598;50.508;10.436;2023-05-10T12:18:07;1.70;;;1.60;;
16963;SDS011;8598;50.508;10.436;2023-05-10T12:20:35;1.63;;;1.53;;
16963;SDS011;8598;50.508;10.436;2023-05-10T12:23:02;2.13;;;2.03;;
16963;SDS011;8598;50.508;10.436;2023-05-10T12:25:30;1.80;;;1.67;;
16963;SDS011;8598;50.508;10.436;2023-05-10T12:27:58;1.47;;;1.37;;
16963;SDS011;8598;50.508;10.436;2023-05-10T12:30:27;1.40;;;1.30;;
16963;SDS011;8598;50.508;10.436;2023-05-10T12:32:59;1.57;;;1.47;;
16963;SDS011;8598;50.508;10.436;2023-05-10T12:35:27;1.53;;;1.43;;
16963;SDS011;8598;50.508;10.436;2023-05-10T12:37:56;2.67;;;2.30;;
16963;SDS011;8598;50.508;10.436;2023-05-10T12:40:22;3.97;;;2.40;;
16963;SDS011;8598;50.508;10.436;2023-05-10T12:42:49;3.97;;;2.37;;
16963;SDS011;8598;50.508;10.436;2023-05-10T12:45:17;2.63;;;1.93;;
16963;SDS011;8598;50.508;10.436;2023-05-10T12:47:44;2.30;;;2.03;;
16963;SDS011;8598;50.508;10.436;2023-05-10T12:50:12;4.60;;;2.87;;
16963;SDS011;8598;50.508;10.436;2023-05-10T12:52:38;7.50;;;2.20;;
16963;SDS011;8598;50.508;10.436;2023-05-10T12:55:05;1.17;;;1.07;;
16963;SDS011;8598;50.508;10.436;2023-05-10T12:57:32;1.50;;;0.90;;
16963;SDS011;8598;50.508;10.436;2023-05-10T12:59:59;1.80;;;1.70;;
16963;SDS011;8598;50.508;10.436;2023-05-10T13:02:26;3.90;;;1.70;;
16963;SDS011;8598;50.508;10.436;2023-05-10T13:04:52;3.53;;;1.70;;
16963;SDS011;8598;50.508;10.436;2023-05-10T13:07:20;1.67;;;1.27;;
16963;SDS011;8598;50.508;10.436;2023-05-10T13:09:47;3.80;;;1.27;;
16963;SDS011;8598;50.508;10.436;2023-05-10T13:12:13;2.00;;;1.47;;
16963;SDS011;8598;50.508;10.436;2023-05-10T13:14:40;1.73;;;1.57;;
16963;SDS011;8598;50.508;10.436;2023-05-10T13:17:07;1.57;;;1.33;;
16963;SDS011;8598;50.508;10.436;2023-05-10T13:19:34;1.73;;;1.63;;
16963;SDS011;8598;50.508;10.436;2023-05-10T13:22:00;1.10;;;1.03;;
16963;SDS011;8598;50.508;10.436;2023-05-10T13:24:28;1.57;;;1.47;;
16963;SDS011;8598;50.508;10.436;2023-05-10T13:26:55;2.00;;;1.80;;
16963;SDS011;8598;50.508;10.436;2023-05-10T13:29:21;2.60;;;1.90;;
16963;SDS011;8598;50.508;10.436;2023-05-10T13:31:48;6.30;;;2.50;;
16963;SDS011;8598;50.508;10.436;2023-05-10T13:34:15;10.47;;;6.27;;
16963;SDS011;8598;50.508;10.436;2023-05-10T13:36:41;6.00;;;3.03;;
16963;SDS011;8598;50.508;10.436;2023-05-10T13:39:08;2.20;;;2.10;;
16963;SDS011;8598;50.508;10.436;2023-05-10T13:41:36;3.50;;;1.60;;
16963;SDS011;8598;50.508;10.436;2023-05-10T13:44:03;0.90;;;0.90;;
16963;SDS011;8598;50.508;10.436;2023-05-10T13:46:29;4.10;;;2.03;;
16963;SDS011;8598;50.508;10.436;2023-05-10T13:48:56;0.60;;;0.60;;
16963;SDS011;8598;50.508;10.436;2023-05-10T13:51:22;1.10;;;1.00;;
16963;SDS011;8598;50.508;10.436;2023-05-10T13:53:49;1.03;;;0.93;;
16963;SDS011;8598;50.508;10.436;2023-05-10T13:56:17;2.60;;;1.67;;
16963;SDS011;8598;50.508;10.436;2023-05-10T13:58:44;3.57;;;1.70;;
16963;SDS011;8598;50.508;10.436;2023-05-10T14:01:12;1.63;;;1.30;;
16963;SDS011;8598;50.508;10.436;2023-05-10T14:03:39;1.70;;;1.60;;
16963;SDS011;8598;50.508;10.436;2023-05-10T14:06:05;1.17;;;1.17;;
16963;SDS011;8598;50.508;10.436;2023-05-10T14:08:33;2.53;;;1.20;;
16963;SDS011;8598;50.508;10.436;2023-05-10T14:11:00;1.53;;;1.40;;
16963;SDS011;8598;50.508;10.436;2023-05-10T14:13:26;2.17;;;1.67;;
16963;SDS011;8598;50.508;10.436;2023-05-10T14:15:54;1.40;;;1.20;;
16963;SDS011;8598;50.508;10.436;2023-05-10T14:18:21;4.37;;;1.50;;
16963;SDS011;8598;50.508;10.436;2023-05-10T14:20:48;1.87;;;1.30;;
16963;SDS011;8598;50.508;10.436;2023-05-10T14:23:15;2.70;;;1.60;;
16963;SDS011;8598;50.508;10.436;2023-05-10T14:25:41;4.33;;;1.57;;
16963;SDS011;8598;50.508;10.436;2023-05-10T14:28:08;1.77;;;1.40;;
16963;SDS011;8598;50.508;10.436;2023-05-10T14:30:35;1.70;;;1.60;;
16963;SDS011;8598;50.508;10.436;2023-05-10T14:33:03;1.83;;;1.73;;
16963;SDS011;8598;50.508;10.436;2023-05-10T14:35:30;1.40;;;1.30;;
16963;SDS011;8598;50.508;10.436;2023-05-10T14:37:56;1.70;;;1.43;;
16963;SDS011;8598;50.508;10.436;2023-05-10T14:40:23;3.50;;;1.37;;
16963;SDS011;8598;50.508;10.436;2023-05-10T14:42:50;3.27;;;1.43;;
16963;SDS011;8598;50.508;10.436;2023-05-10T14:45:17;3.00;;;1.23;;
16963;SDS011;8598;50.508;10.436;2023-05-10T14:47:44;2.83;;;1.60;;
16963;SDS011;8598;50.508;10.436;2023-05-10T14:50:12;1.80;;;1.50;;
16963;SDS011;8598;50.508;10.436;2023-05-10T14:52:39;2.63;;;1.77;;
16963;SDS011;8598;50.508;10.436;2023-05-10T14:55:06;1.90;;;1.43;;
16963;SDS011;8598;50.508;10.436;2023-05-10T14:57:33;4.73;;;2.30;;
16963;SDS011;8598;50.508;10.436;2023-05-10T15:00:00;1.70;;;1.60;;
16963;SDS011;8598;50.508;10.436;2023-05-10T15:02:27;2.47;;;2.20;;